sensor_id;sensor_type;location;lat;lon;timestamp;pressure;altitude;pressure_sealevel;temperature;humidity
43691;BME280;29293;52.190;21.226;2022-12-18T00:05:52;101718.23;;;-6.72;100.00
43691;BME280;29293;52.190;21.226;2022-12-18T00:21:02;101734.23;;;-6.71;100.00
43691;BME280;29293;52.190;21.226;2022-12-18T00:36:12;101751.47;;;-6.62;100.00
43691;BME280;29293;52.190;21.226;2022-12-18T00:51:20;101777.91;;;-6.55;100.00
43691;BME280;29293;52.190;21.226;2022-12-18T01:06:27;101785.42;;;-6.52;100.00
43691;BME280;29293;52.190;21.226;2022-12-18T01:21:35;101802.34;;;-6.45;100.00
43691;BME280;29293;52.190;21.226;2022-12-18T01:36:42;101817.45;;;-6.43;100.00
43691;BME280;29293;52.190;21.226;2022-12-18T01:51:49;101845.59;;;-6.41;100.00
43691;BME280;29293;52.190;21.226;2022-12-18T02:07:00;101861.36;;;-6.37;100.00
43691;BME280;29293;52.190;21.226;2022-12-18T02:22:24;101878.96;;;-6.37;100.00
43691;BME280;29293;52.190;21.226;2022-12-18T02:37:34;101898.84;;;-6.35;100.00
43691;BME280;29293;52.190;21.226;2022-12-18T02:52:49;101911.15;;;-6.26;100.00
43691;BME280;29293;52.190;21.226;2022-12-18T03:08:04;101930.45;;;-6.22;100.00
43691;BME280;29293;52.190;21.226;2022-12-18T03:23:15;101965.64;;;-6.27;100.00
43691;BME280;29293;52.190;21.226;2022-12-18T03:38:23;101971.27;;;-6.36;100.00
43691;BME280;29293;52.190;21.226;2022-12-18T03:53:35;101999.05;;;-6.42;100.00
43691;BME280;29293;52.190;21.226;2022-12-18T04:08:44;102004.64;;;-6.50;100.00
43691;BME280;29293;52.190;21.226;2022-12-18T04:23:53;102027.54;;;-6.50;100.00
43691;BME280;29293;52.190;21.226;2022-12-18T04:39:03;102048.47;;;-6.58;100.00
43691;BME280;29293;52.190;21.226;2022-12-18T04:54:11;102072.63;;;-6.72;100.00
43691;BME280;29293;52.190;21.226;2022-12-18T05:09:18;102086.70;;;-6.82;100.00
43691;BME280;29293;52.190;21.226;2022-12-18T05:24:26;102107.45;;;-6.90;100.00
43691;BME280;29293;52.190;21.226;2022-12-18T05:39:36;102134.30;;;-6.98;100.00
43691;BME280;29293;52.190;21.226;2022-12-18T05:54:45;102159.21;;;-7.05;100.00
43691;BME280;29293;52.190;21.226;2022-12-18T06:09:54;102172.22;;;-7.18;100.00
43691;BME280;29293;52.190;21.226;2022-12-18T06:25:02;102200.84;;;-7.28;100.00
43691;BME280;29293;52.190;21.226;2022-12-18T06:40:12;102221.97;;;-7.29;100.00
43691;BME280;29293;52.190;21.226;2022-12-18T06:55:19;102258.19;;;-7.27;100.00
43691;BME280;29293;52.190;21.226;2022-12-18T07:10:27;102280.33;;;-7.25;100.00
43691;BME280;29293;52.190;21.226;2022-12-18T07:25:36;102308.40;;;-7.17;100.00
43691;BME280;29293;52.190;21.226;2022-12-18T07:40:43;102331.89;;;-7.09;100.00
43691;BME280;29293;52.190;21.226;2022-12-18T07:55:56;102335.17;;;-6.88;100.00
43691;BME280;29293;52.190;21.226;2022-12-18T08:11:05;102361.21;;;-6.71;100.00
43691;BME280;29293;52.190;21.226;2022-12-18T08:26:13;102380.92;;;-6.56;100.00
43691;BME280;29293;52.190;21.226;2022-12-18T08:41:22;102404.09;;;-6.48;100.00
43691;BME280;29293;52.190;21.226;2022-12-18T08:56:30;102424.01;;;-6.34;100.00
43691;BME280;29293;52.190;21.226;2022-12-18T09:11:37;102426.69;;;-6.10;100.00
43691;BME280;29293;52.190;21.226;2022-12-18T09:26:45;102442.80;;;-5.79;100.00
43691;BME280;29293;52.190;21.226;2022-12-18T09:41:54;102449.73;;;-5.34;100.00
43691;BME280;29293;52.190;21.226;2022-12-18T09:57:06;102453.14;;;-5.05;100.00
43691;BME280;29293;52.190;21.226;2022-12-18T10:12:19;102456.17;;;-4.77;100.00
43691;BME280;29293;52.190;21.226;2022-12-18T10:27:30;102451.83;;;-4.43;100.00
43691;BME280;29293;52.190;21.226;2022-12-18T10:42:39;102472.92;;;-4.27;100.00
43691;BME280;29293;52.190;21.226;2022-12-18T10:57:47;102470.52;;;-4.21;100.00
43691;BME280;29293;52.190;21.226;2022-12-18T11:12:57;102477.88;;;-4.27;100.00
43691;BME280;29293;52.190;21.226;2022-12-18T11:28:33;102489.11;;;-4.23;100.00
43691;BME280;29293;52.190;21.226;2022-12-18T11:43:48;102496.63;;;-4.28;100.00
43691;BME280;29293;52.190;21.226;2022-12-18T11:59:05;102497.48;;;-4.27;100.00
43691;BME280;29293;52.190;21.226;2022-12-18T12:14:35;102502.76;;;-4.25;100.00
43691;BME280;29293;52.190;21.226;2022-12-18T12:29:54;102516.59;;;-4.27;100.00
43691;BME280;29293;52.190;21.226;2022-12-18T12:45:13;102518.77;;;-4.21;100.00
43691;BME280;29293;52.190;21.226;2022-12-18T13:00:24;102543.21;;;-4.43;100.00
43691;BME280;29293;52.190;21.226;2022-12-18T13:15:38;102557.27;;;-4.48;100.00
43691;BME280;29293;52.190;21.226;2022-12-18T13:30:57;102586.80;;;-4.59;100.00
43691;BME280;29293;52.190;21.226;2022-12-18T14:01:30;102597.66;;;-4.88;100.00
43691;BME280;29293;52.190;21.226;2022-12-18T14:16:38;102611.55;;;-4.95;100.00
43691;BME280;29293;52.190;21.226;2022-12-18T14:31:50;102630.56;;;-5.03;100.00
43691;BME280;29293;52.190;21.226;2022-12-18T14:47:16;102637.95;;;-5.14;100.00
43691;BME280;29293;52.190;21.226;2022-12-18T15:02:25;102639.20;;;-5.15;100.00
43691;BME280;29293;52.190;21.226;2022-12-18T15:17:34;102654.73;;;-5.15;100.00
43691;BME280;29293;52.190;21.226;2022-12-18T15:32:42;102658.17;;;-5.21;100.00
43691;BME280;29293;52.190;21.226;2022-12-18T15:47:50;102673.80;;;-5.29;100.00
43691;BME280;29293;52.190;21.226;2022-12-18T16:02:58;102690.77;;;-5.31;100.00
43691;BME280;29293;52.190;21.226;2022-12-18T16:18:05;102699.58;;;-5.30;100.00
43691;BME280;29293;52.190;21.226;2022-12-18T16:33:13;102692.61;;;-5.37;100.00
43691;BME280;29293;52.190;21.226;2022-12-18T16:48:21;102703.50;;;-5.48;100.00
43691;BME280;29293;52.190;21.226;2022-12-18T17:03:29;102707.95;;;-5.52;100.00
43691;BME280;29293;52.190;21.226;2022-12-18T17:18:36;102718.55;;;-5.72;100.00
43691;BME280;29293;52.190;21.226;2022-12-18T17:33:44;102733.51;;;-5.85;100.00
43691;BME280;29293;52.190;21.226;2022-12-18T17:48:52;102734.25;;;-5.90;100.00
43691;BME280;29293;52.190;21.226;2022-12-18T18:04:02;102731.47;;;-5.92;100.00
43691;BME280;29293;52.190;21.226;2022-12-18T18:19:12;102757.87;;;-6.06;100.00
43691;BME280;29293;52.190;21.226;2022-12-18T18:34:21;102752.31;;;-6.18;100.00
43691;BME280;29293;52.190;21.226;2022-12-18T18:49:29;102759.05;;;-6.22;100.00
43691;BME280;29293;52.190;21.226;2022-12-18T19:04:37;102771.79;;;-6.29;100.00
43691;BME280;29293;52.190;21.226;2022-12-18T19:19:45;102753.14;;;-6.35;100.00
43691;BME280;29293;52.190;21.226;2022-12-18T19:34:53;102759.69;;;-6.38;100.00
43691;BME280;29293;52.190;21.226;2022-12-18T19:50:00;102773.27;;;-6.41;100.00
43691;BME280;29293;52.190;21.226;2022-12-18T20:05:11;102791.77;;;-6.39;100.00
43691;BME280;29293;52.190;21.226;2022-12-18T20:20:19;102788.79;;;-6.42;100.00
43691;BME280;29293;52.190;21.226;2022-12-18T20:35:26;102782.30;;;-6.48;100.00
43691;BME280;29293;52.190;21.226;2022-12-18T20:50:35;102783.70;;;-6.48;100.00
43691;BME280;29293;52.190;21.226;2022-12-18T21:05:43;102780.06;;;-6.58;100.00
43691;BME280;29293;52.190;21.226;2022-12-18T21:20:50;102816.56;;;-6.67;100.00
43691;BME280;29293;52.190;21.226;2022-12-18T21:35:57;102802.63;;;-6.62;100.00
43691;BME280;29293;52.190;21.226;2022-12-18T21:51:05;102796.48;;;-6.65;100.00
43691;BME280;29293;52.190;21.226;2022-12-18T22:06:12;102770.28;;;-6.74;100.00
43691;BME280;29293;52.190;21.226;2022-12-18T22:21:24;102740.04;;;-6.83;100.00
43691;BME280;29293;52.190;21.226;2022-12-18T22:36:37;102712.30;;;-6.96;100.00
43691;BME280;29293;52.190;21.226;2022-12-18T22:51:45;102696.52;;;-7.07;100.00
43691;BME280;29293;52.190;21.226;2022-12-18T23:06:52;102700.78;;;-7.17;100.00
43691;BME280;29293;52.190;21.226;2022-12-18T23:22:00;102706.77;;;-7.20;100.00
43691;BME280;29293;52.190;21.226;2022-12-18T23:37:08;102696.25;;;-7.32;100.00
43691;BME280;29293;52.190;21.226;2022-12-18T23:52:16;102686.61;;;-7.40;100.00
